Trenton, New Jersey
Current Conditions -  °F | °C
As of 4:53 AM on Sunday 26 Oct 2014 (Local Time) from KTTN Reporting Station
Clear Clear  
Wind Chill: 59°   Ceiling: Unl
Heat Index: 59°   Visibility: 10mi
Dew Point: 42°   Wind: 7mph
Humidity: 53%   Direction: 290°WNW
Pressure: 29.6"   Gusts: NA
Location:  40.22°N, 74.76°W
Report Text: KTTN 260853Z AUTO 29006KT 10SM CLR 15/06 A2960 RMK AO2 SLP015 T01500056 53002
Loading
Personal Weather Stations






























Interactive Weather Map New forecast layout! Learn more

10-Day Weather Forecast

Advertisements
Track Severe Weather on mobile